createdAt,value
2019-04-28T00:01:01.687Z,6.03
2019-04-28T00:05:06.596Z,4.60
2019-04-28T00:09:11.795Z,7.67
2019-04-28T00:13:15.283Z,8.00
2019-04-28T00:17:18.788Z,5.45
2019-04-28T00:21:26.497Z,7.08
2019-04-28T00:25:31.642Z,5.47
2019-04-28T00:29:40.874Z,8.25
2019-04-28T00:33:41.007Z,5.25
2019-04-28T00:37:45.603Z,6.55
2019-04-28T00:41:49.393Z,9.23
2019-04-28T00:45:52.875Z,4.90
2019-04-28T00:49:56.359Z,10.55
2019-04-28T00:54:00.847Z,9.95
2019-04-28T00:58:04.432Z,8.30
2019-04-28T01:02:11.109Z,11.68
2019-04-28T01:06:14.706Z,12.93
2019-04-28T01:10:20.952Z,9.58
2019-04-28T01:14:24.185Z,8.78
2019-04-28T01:18:30.250Z,8.25
2019-04-28T01:22:35.147Z,8.23
2019-04-28T01:26:39.217Z,8.18
2019-04-28T01:30:45.487Z,10.88
2019-04-28T01:34:49.868Z,8.25
2019-04-28T01:38:53.808Z,9.05
2019-04-28T01:42:57.735Z,9.73
2019-04-28T01:47:01.296Z,8.70
2019-04-28T01:51:04.862Z,8.45
2019-04-28T01:55:10.099Z,7.20
2019-04-28T01:59:13.783Z,5.67
2019-04-28T02:03:17.322Z,6.65
2019-04-28T02:07:20.819Z,7.40
2019-04-28T02:11:24.672Z,8.10
2019-04-28T02:15:30.055Z,7.67
2019-04-28T02:19:33.392Z,8.13
2019-04-28T02:23:39.587Z,7.80
2019-04-28T02:27:43.125Z,10.20
2019-04-28T02:31:46.593Z,7.53
2019-04-28T02:35:51.081Z,7.20
2019-04-28T02:39:54.778Z,5.40
2019-04-28T02:44:00.845Z,11.95
2019-04-28T02:48:06.270Z,8.10
2019-04-28T02:52:20.211Z,6.60
2019-04-28T02:56:23.374Z,7.08
2019-04-28T03:00:26.848Z,8.43
2019-04-28T03:04:30.962Z,6.28
2019-04-28T03:08:34.582Z,6.00
2019-04-28T03:12:41.090Z,6.70
2019-04-28T03:16:43.900Z,9.03
2019-04-28T03:20:47.388Z,7.50
2019-04-28T03:24:52.529Z,7.25
2019-04-28T03:29:13.565Z,6.50
2019-04-28T03:33:24.462Z,8.93
2019-04-28T03:37:24.543Z,7.28
2019-04-28T03:41:30.889Z,9.23
2019-04-28T03:45:43.988Z,10.68
2019-04-28T03:49:50.277Z,8.38
2019-04-28T03:53:52.711Z,6.70
2019-04-28T03:57:56.192Z,7.72
2019-04-28T04:02:03.193Z,9.58
2019-04-28T04:06:05.454Z,10.23
2019-04-28T04:10:11.515Z,7.15
2019-04-28T04:14:21.100Z,7.55
2019-04-28T04:18:30.841Z,6.15
2019-04-28T04:22:33.830Z,5.97
2019-04-28T04:26:37.757Z,8.00
2019-04-28T04:30:41.952Z,7.12
2019-04-28T04:34:45.410Z,8.25
2019-04-28T04:38:51.362Z,6.20
2019-04-28T04:42:54.072Z,8.20
2019-04-28T04:46:57.563Z,10.88
2019-04-28T04:51:01.488Z,7.50
2019-04-28T04:55:06.440Z,7.95
2019-04-28T04:59:10.477Z,7.00
2019-04-28T05:03:21.181Z,9.38
2019-04-28T05:07:24.034Z,8.68
2019-04-28T05:11:27.579Z,10.13
2019-04-28T05:15:31.069Z,7.60
2019-04-28T05:19:34.877Z,7.72
2019-04-28T05:23:46.502Z,8.40
2019-04-28T05:27:54.476Z,8.73
2019-04-28T05:32:03.162Z,9.88
2019-04-28T05:36:05.623Z,10.13
2019-04-28T05:40:10.441Z,6.25
2019-04-28T05:44:14.521Z,5.07
2019-04-28T05:48:20.049Z,7.00
2019-04-28T05:52:41.184Z,8.65
2019-04-28T05:57:02.346Z,6.73
2019-04-28T06:01:10.380Z,7.90
2019-04-28T06:05:13.902Z,9.83
2019-04-28T06:09:20.360Z,5.67
2019-04-28T06:13:24.323Z,6.05
2019-04-28T06:17:29.491Z,6.75
2019-04-28T06:21:33.141Z,4.83
2019-04-28T06:25:36.637Z,6.08
2019-04-28T06:29:40.132Z,10.23
2019-04-28T06:33:44.587Z,6.17
2019-04-28T06:37:48.228Z,5.92
2019-04-28T06:41:51.709Z,7.03
2019-04-28T06:45:55.476Z,5.22
2019-04-28T06:49:58.969Z,6.78
2019-04-28T06:54:03.333Z,5.47
2019-04-28T06:58:06.817Z,6.75
2019-04-28T07:02:10.343Z,9.60
2019-04-28T07:06:13.849Z,8.73
2019-04-28T07:10:17.347Z,7.35
2019-04-28T07:14:20.816Z,6.10
2019-04-28T07:18:24.298Z,5.45
2019-04-28T07:22:29.766Z,5.45
2019-04-28T07:26:33.422Z,11.88
2019-04-28T07:30:38.983Z,5.70
2019-04-28T07:34:42.449Z,6.50
2019-04-28T07:38:46.229Z,9.00
2019-04-28T07:42:49.711Z,6.37
2019-04-28T07:46:53.198Z,10.80
2019-04-28T07:50:56.686Z,7.08
2019-04-28T07:55:00.611Z,7.30
2019-04-28T07:59:04.087Z,6.35
2019-04-28T08:03:07.551Z,10.58
2019-04-28T08:07:11.135Z,8.48
2019-04-28T08:11:14.617Z,8.93
2019-04-28T08:15:18.481Z,8.50
2019-04-28T08:19:22.272Z,6.62
2019-04-28T08:23:26.113Z,6.95
2019-04-28T08:27:29.890Z,5.55
2019-04-28T08:31:53.097Z,8.00
2019-04-28T08:35:56.664Z,3.33
2019-04-28T08:40:00.470Z,5.33
2019-04-28T08:44:03.985Z,5.53
2019-04-28T08:48:07.664Z,4.60
2019-04-28T08:52:11.424Z,4.10
2019-04-28T08:56:14.915Z,7.17
2019-04-28T09:00:19.256Z,6.50
2019-04-28T09:04:22.732Z,4.25
2019-04-28T09:08:26.207Z,6.05
2019-04-28T09:12:30.165Z,5.22
2019-04-28T09:16:33.660Z,5.95
2019-04-28T09:20:37.141Z,2.90
2019-04-28T09:24:40.632Z,8.88
2019-04-28T09:28:44.199Z,3.77
2019-04-28T09:32:47.689Z,2.52
2019-04-28T09:36:51.212Z,5.53
2019-04-28T09:40:54.692Z,1.05
2019-04-28T09:45:01.644Z,1.92
2019-04-28T09:49:05.658Z,1.98
2019-04-28T09:53:11.292Z,0.75
2019-04-28T09:57:14.801Z,1.15
2019-04-28T10:01:18.294Z,1.50
2019-04-28T10:05:22.260Z,1.85
2019-04-28T10:09:26.085Z,2.12
2019-04-28T10:13:29.585Z,1.42
2019-04-28T10:17:33.073Z,1.32
2019-04-28T10:21:36.545Z,1.57
2019-04-28T10:25:40.434Z,0.98
2019-04-28T10:29:43.933Z,2.72
2019-04-28T10:33:49.496Z,0.93
2019-04-28T10:37:53.217Z,0.40
2019-04-28T10:41:56.716Z,0.82
2019-04-28T10:46:00.608Z,1.00
2019-04-28T10:50:04.952Z,0.50
2019-04-28T10:54:08.724Z,1.02
2019-04-28T10:58:12.396Z,1.00
2019-04-28T11:02:16.237Z,0.40
2019-04-28T11:06:20.238Z,3.65
2019-04-28T11:10:24.087Z,1.62
2019-04-28T11:14:28.119Z,0.30
2019-04-28T11:18:31.611Z,0.50
2019-04-28T11:22:35.280Z,0.50
2019-04-28T11:26:38.860Z,2.05
2019-04-28T11:30:42.485Z,1.20
2019-04-28T11:35:04.550Z,0.85
2019-04-28T11:39:10.058Z,0.60
2019-04-28T11:43:13.561Z,0.80
2019-04-28T11:47:18.854Z,0.42
2019-04-28T11:51:22.347Z,0.62
2019-04-28T11:55:25.905Z,0.62
2019-04-28T11:59:29.814Z,0.50
2019-04-28T12:03:33.589Z,1.25
2019-04-28T12:07:37.142Z,0.70
2019-04-28T12:11:42.564Z,0.65
2019-04-28T12:15:50.382Z,1.35
2019-04-28T12:19:55.843Z,2.77
2019-04-28T12:23:59.697Z,1.52
2019-04-28T12:28:04.326Z,1.66
2019-04-28T12:32:07.837Z,0.62
2019-04-28T12:36:12.176Z,1.47
2019-04-28T12:40:16.192Z,0.80
2019-04-28T12:44:20.098Z,0.53
2019-04-28T12:48:23.897Z,0.75
2019-04-28T12:52:27.497Z,0.82
2019-04-28T12:56:31.336Z,0.57
2019-04-28T13:00:42.527Z,0.57
2019-04-28T13:04:47.961Z,0.80
2019-04-28T13:08:51.445Z,0.53
2019-04-28T13:12:55.036Z,0.60
2019-04-28T13:16:58.535Z,0.62
2019-04-28T13:21:02.031Z,0.70
2019-04-28T13:25:06.886Z,1.05
2019-04-28T13:29:10.687Z,0.53
2019-04-28T13:33:14.178Z,1.95
2019-04-28T13:37:17.787Z,0.47
2019-04-28T13:41:21.279Z,1.12
2019-04-28T13:45:28.442Z,0.60
2019-04-28T13:49:33.854Z,0.85
2019-04-28T13:53:42.411Z,0.80
2019-04-28T13:57:58.583Z,1.70
2019-04-28T14:02:09.849Z,0.88
2019-04-28T14:06:27.200Z,1.40
2019-04-28T14:10:20.204Z,0.60
2019-04-28T14:14:23.804Z,1.60
2019-04-28T14:18:27.291Z,1.92
2019-04-28T14:22:30.901Z,1.27
2019-04-28T14:26:34.492Z,3.20
2019-04-28T14:30:38.028Z,0.88
2019-04-28T14:34:41.720Z,0.98
2019-04-28T14:38:45.554Z,0.90
2019-04-28T14:42:49.929Z,0.68
2019-04-28T14:46:53.780Z,0.90
2019-04-28T14:50:57.271Z,0.72
2019-04-28T14:55:01.107Z,1.02
2019-04-28T14:59:05.080Z,0.90
2019-04-28T15:03:10.309Z,0.70
2019-04-28T15:07:31.801Z,0.70
2019-04-28T15:11:42.982Z,0.62
2019-04-28T15:23:53.074Z,0.60
2019-04-28T15:27:56.942Z,1.98
2019-04-28T15:32:00.422Z,0.88
2019-04-28T15:36:04.141Z,0.65
2019-04-28T15:40:08.111Z,0.55
2019-04-28T15:44:11.645Z,0.85
2019-04-28T15:48:15.108Z,0.60
2019-04-28T15:52:19.036Z,2.67
2019-04-28T15:56:26.874Z,4.53
2019-04-28T16:00:30.660Z,1.20
2019-04-28T16:04:34.259Z,2.45
2019-04-28T16:08:37.765Z,1.80
2019-04-28T16:12:41.617Z,0.75
2019-04-28T16:16:45.312Z,2.67
2019-04-28T16:20:49.080Z,1.00
2019-04-28T16:24:52.635Z,1.07
2019-04-28T16:28:56.637Z,0.82
2019-04-28T16:33:00.121Z,1.80
2019-04-28T16:37:03.611Z,1.60
2019-04-28T16:41:07.094Z,0.80
2019-04-28T16:45:10.837Z,1.95
2019-04-28T16:49:14.328Z,0.82
2019-04-28T16:53:17.833Z,5.37
2019-04-28T16:57:28.657Z,0.80
2019-04-28T17:01:49.875Z,0.90
2019-04-28T17:05:53.414Z,3.33
2019-04-28T17:09:56.918Z,1.50
2019-04-28T17:14:00.419Z,1.52
2019-04-28T17:18:03.980Z,1.27
2019-04-28T17:22:07.597Z,2.83
2019-04-28T17:26:11.670Z,1.50
2019-04-28T17:30:15.502Z,1.20
2019-04-28T17:34:19.289Z,0.78
2019-04-28T17:38:22.778Z,2.92
2019-04-28T17:42:26.372Z,1.40
2019-04-28T17:46:30.233Z,0.78
2019-04-28T17:50:35.379Z,3.67
2019-04-28T17:54:39.199Z,0.98
2019-04-28T17:58:43.101Z,1.22
2019-04-28T18:03:00.377Z,2.85
2019-04-28T18:07:11.152Z,1.15
2019-04-28T18:11:15.045Z,1.17
2019-04-28T18:15:32.594Z,1.77
2019-04-28T18:19:36.825Z,1.12
2019-04-28T18:23:41.247Z,3.67
2019-04-28T18:27:44.800Z,0.88
2019-04-28T18:31:58.997Z,1.82
2019-04-28T18:36:04.119Z,3.05
2019-04-28T18:40:09.681Z,2.27
2019-04-28T18:44:14.838Z,2.12
2019-04-28T18:48:18.348Z,2.80
2019-04-28T18:52:21.794Z,1.37
2019-04-28T18:56:25.325Z,1.12
2019-04-28T19:00:30.464Z,1.45
2019-04-28T19:04:34.331Z,1.80
2019-04-28T19:08:48.855Z,1.70
2019-04-28T19:12:46.702Z,1.12
2019-04-28T19:17:07.213Z,1.55
2019-04-28T19:21:10.711Z,2.55
2019-04-28T19:25:14.598Z,1.55
2019-04-28T19:29:18.183Z,1.80
2019-04-28T19:33:21.725Z,3.08
2019-04-28T19:37:26.752Z,1.42
2019-04-28T19:41:30.576Z,2.05
2019-04-28T19:45:35.702Z,2.20
2019-04-28T19:49:39.210Z,1.67
2019-04-28T19:53:42.718Z,3.85
2019-04-28T19:57:53.687Z,1.87
2019-04-28T20:01:57.192Z,2.20
2019-04-28T20:06:00.667Z,1.60
2019-04-28T20:10:08.486Z,7.22
2019-04-28T20:14:12.064Z,2.05
2019-04-28T20:18:16.107Z,3.85
2019-04-28T20:22:20.510Z,1.65
2019-04-28T20:26:24.151Z,1.25
2019-04-28T20:30:28.061Z,2.33
2019-04-28T20:34:34.203Z,2.60
2019-04-28T20:38:37.678Z,1.82
2019-04-28T20:48:04.771Z,2.50
2019-04-28T20:52:08.247Z,1.72
2019-04-28T20:56:11.706Z,1.98
2019-04-28T21:00:15.423Z,1.32
2019-04-28T21:04:19.246Z,2.27
2019-04-28T21:08:22.688Z,1.82
2019-04-28T21:12:26.180Z,2.02
2019-04-28T21:16:29.665Z,2.47
2019-04-28T21:20:33.235Z,2.35
2019-04-28T21:24:36.706Z,1.70
2019-04-28T21:28:40.163Z,2.05
2019-04-28T21:32:43.672Z,1.67
2019-04-28T21:36:47.146Z,3.15
2019-04-28T21:40:50.638Z,1.22
2019-04-28T21:45:14.280Z,2.27
2019-04-28T21:49:19.753Z,1.95
2019-04-28T21:53:23.230Z,2.13
2019-04-28T21:57:27.080Z,1.87
2019-04-28T22:01:30.922Z,2.50
2019-04-28T22:05:34.728Z,3.42
2019-04-28T22:09:38.533Z,3.42
2019-04-28T22:13:42.028Z,2.45
2019-04-28T22:17:45.500Z,2.40
2019-04-28T22:21:48.978Z,3.52
2019-04-28T22:25:52.450Z,3.45
2019-04-28T22:29:55.918Z,3.02
2019-04-28T22:33:59.894Z,2.40
2019-04-28T22:38:03.337Z,2.62
2019-04-28T22:42:06.854Z,3.90
2019-04-28T22:46:10.658Z,6.00
2019-04-28T22:50:40.289Z,3.83
2019-04-28T22:54:51.156Z,4.42
2019-04-28T22:58:58.937Z,4.35
2019-04-28T23:03:02.490Z,2.98
2019-04-28T23:07:06.410Z,3.95
2019-04-28T23:11:10.231Z,4.47
2019-04-28T23:15:14.115Z,6.70
2019-04-28T23:19:19.357Z,8.85
2019-04-28T23:23:23.227Z,3.83
2019-04-28T23:27:26.736Z,4.05
2019-04-28T23:31:30.214Z,7.17
2019-04-28T23:35:33.692Z,4.83
2019-04-28T23:39:37.346Z,5.62
2019-04-28T23:43:40.828Z,7.83
2019-04-28T23:47:44.695Z,5.38
2019-04-28T23:51:56.366Z,7.44
2019-04-28T23:55:59.831Z,6.23
